Lynnville, Indiana
Current Conditions -  °F | °C
As of 3:54 PM on Monday 24 Nov 2014 (Local Time) from KEVV Reporting Station
Broken Clouds Broken Clouds  
Wind Chill: 43°   Ceiling: 6000
Heat Index: 47°   Visibility: 10mi
Dew Point: 35°   Wind: 8mph
Humidity: 63%   Direction: 250°WSW
Pressure: 29.82"   Gusts: NA
Location:  38.2°N, 87.3°W
Report Text: KEVV 242154Z 25007KT 10SM FEW040 SCT050 BKN060 08/02 A2982 RMK AO2 SLP097 T00830017
Loading
Personal Weather Stations






























Interactive Weather Map New forecast layout! Learn more

10-Day Weather Forecast

Advertisements
Track Severe Weather on mobile